sensor_id;sensor_type;location;lat;lon;timestamp;P1;durP1;ratioP1;P2;durP2;ratioP2
6527;SDS011;64597;42.664;23.256;2024-01-07T00:01:33;12.13;;;6.85;;
6527;SDS011;64597;42.664;23.256;2024-01-07T00:03:58;10.48;;;6.03;;
6527;SDS011;64597;42.664;23.256;2024-01-07T00:06:23;12.82;;;6.60;;
6527;SDS011;64597;42.664;23.256;2024-01-07T00:08:49;13.52;;;6.80;;
6527;SDS011;64597;42.664;23.256;2024-01-07T00:11:14;11.55;;;5.88;;
6527;SDS011;64597;42.664;23.256;2024-01-07T00:13:40;10.38;;;6.45;;
6527;SDS011;64597;42.664;23.256;2024-01-07T00:16:06;10.13;;;5.28;;
6527;SDS011;64597;42.664;23.256;2024-01-07T00:18:31;9.88;;;5.50;;
6527;SDS011;64597;42.664;23.256;2024-01-07T00:20:57;12.60;;;5.78;;
6527;SDS011;64597;42.664;23.256;2024-01-07T00:23:22;10.73;;;5.65;;
6527;SDS011;64597;42.664;23.256;2024-01-07T00:25:48;10.23;;;5.80;;
6527;SDS011;64597;42.664;23.256;2024-01-07T00:28:13;11.20;;;5.50;;
6527;SDS011;64597;42.664;23.256;2024-01-07T00:30:39;9.23;;;5.20;;
6527;SDS011;64597;42.664;23.256;2024-01-07T00:33:04;12.15;;;5.93;;
6527;SDS011;64597;42.664;23.256;2024-01-07T00:35:30;9.80;;;5.97;;
6527;SDS011;64597;42.664;23.256;2024-01-07T00:37:55;10.98;;;6.25;;
6527;SDS011;64597;42.664;23.256;2024-01-07T00:40:23;10.07;;;4.93;;
6527;SDS011;64597;42.664;23.256;2024-01-07T00:42:49;10.00;;;5.55;;
6527;SDS011;64597;42.664;23.256;2024-01-07T00:45:15;12.07;;;6.55;;
6527;SDS011;64597;42.664;23.256;2024-01-07T00:47:41;14.23;;;6.13;;
6527;SDS011;64597;42.664;23.256;2024-01-07T00:50:06;13.60;;;6.40;;
6527;SDS011;64597;42.664;23.256;2024-01-07T00:52:32;11.10;;;6.03;;
6527;SDS011;64597;42.664;23.256;2024-01-07T00:54:57;8.43;;;5.70;;
6527;SDS011;64597;42.664;23.256;2024-01-07T00:57:23;14.27;;;6.07;;
6527;SDS011;64597;42.664;23.256;2024-01-07T00:59:48;10.93;;;6.15;;
6527;SDS011;64597;42.664;23.256;2024-01-07T01:02:15;12.57;;;6.60;;
6527;SDS011;64597;42.664;23.256;2024-01-07T01:04:40;13.05;;;6.47;;
6527;SDS011;64597;42.664;23.256;2024-01-07T01:07:06;11.10;;;5.95;;
6527;SDS011;64597;42.664;23.256;2024-01-07T01:09:32;11.32;;;5.78;;
6527;SDS011;64597;42.664;23.256;2024-01-07T01:11:58;6.20;;;4.53;;
6527;SDS011;64597;42.664;23.256;2024-01-07T01:14:24;16.60;;;7.45;;
6527;SDS011;64597;42.664;23.256;2024-01-07T01:16:49;10.93;;;6.13;;
6527;SDS011;64597;42.664;23.256;2024-01-07T01:19:14;7.95;;;5.43;;
6527;SDS011;64597;42.664;23.256;2024-01-07T01:21:40;9.02;;;6.45;;
6527;SDS011;64597;42.664;23.256;2024-01-07T01:24:05;9.25;;;5.75;;
6527;SDS011;64597;42.664;23.256;2024-01-07T01:26:31;10.70;;;6.40;;
6527;SDS011;64597;42.664;23.256;2024-01-07T01:28:56;9.35;;;5.82;;
6527;SDS011;64597;42.664;23.256;2024-01-07T01:31:21;11.60;;;6.20;;
6527;SDS011;64597;42.664;23.256;2024-01-07T01:33:47;12.25;;;6.57;;
6527;SDS011;64597;42.664;23.256;2024-01-07T01:36:12;9.07;;;5.70;;
6527;SDS011;64597;42.664;23.256;2024-01-07T01:38:37;8.43;;;5.57;;
6527;SDS011;64597;42.664;23.256;2024-01-07T01:41:03;9.63;;;5.90;;
6527;SDS011;64597;42.664;23.256;2024-01-07T01:43:28;8.88;;;6.25;;
6527;SDS011;64597;42.664;23.256;2024-01-07T01:45:54;11.68;;;6.32;;
6527;SDS011;64597;42.664;23.256;2024-01-07T01:48:21;11.93;;;6.22;;
6527;SDS011;64597;42.664;23.256;2024-01-07T01:50:51;13.10;;;5.78;;
6527;SDS011;64597;42.664;23.256;2024-01-07T01:53:19;13.52;;;6.72;;
6527;SDS011;64597;42.664;23.256;2024-01-07T01:55:44;15.80;;;7.18;;
6527;SDS011;64597;42.664;23.256;2024-01-07T01:58:10;11.20;;;5.93;;
6527;SDS011;64597;42.664;23.256;2024-01-07T02:00:38;12.23;;;6.53;;
6527;SDS011;64597;42.664;23.256;2024-01-07T02:03:04;11.00;;;6.25;;
6527;SDS011;64597;42.664;23.256;2024-01-07T02:05:30;15.07;;;6.63;;
6527;SDS011;64597;42.664;23.256;2024-01-07T02:07:55;15.73;;;7.68;;
6527;SDS011;64597;42.664;23.256;2024-01-07T02:10:21;15.65;;;7.53;;
6527;SDS011;64597;42.664;23.256;2024-01-07T02:12:47;13.50;;;6.95;;
6527;SDS011;64597;42.664;23.256;2024-01-07T02:15:13;15.68;;;7.10;;
6527;SDS011;64597;42.664;23.256;2024-01-07T02:17:39;11.70;;;6.90;;
6527;SDS011;64597;42.664;23.256;2024-01-07T02:20:04;13.73;;;6.43;;
6527;SDS011;64597;42.664;23.256;2024-01-07T02:22:30;15.65;;;7.25;;
6527;SDS011;64597;42.664;23.256;2024-01-07T02:24:56;15.88;;;7.93;;
6527;SDS011;64597;42.664;23.256;2024-01-07T02:27:21;14.27;;;7.40;;
6527;SDS011;64597;42.664;23.256;2024-01-07T02:29:46;13.95;;;7.43;;
6527;SDS011;64597;42.664;23.256;2024-01-07T02:32:12;13.63;;;7.40;;
6527;SDS011;64597;42.664;23.256;2024-01-07T02:34:37;14.35;;;6.97;;
6527;SDS011;64597;42.664;23.256;2024-01-07T02:37:02;14.98;;;7.95;;
6527;SDS011;64597;42.664;23.256;2024-01-07T02:39:28;11.88;;;7.07;;
6527;SDS011;64597;42.664;23.256;2024-01-07T02:41:53;13.38;;;7.65;;
6527;SDS011;64597;42.664;23.256;2024-01-07T02:44:19;13.38;;;7.50;;
6527;SDS011;64597;42.664;23.256;2024-01-07T02:46:44;12.23;;;7.03;;
6527;SDS011;64597;42.664;23.256;2024-01-07T02:49:11;13.82;;;7.45;;
6527;SDS011;64597;42.664;23.256;2024-01-07T02:51:37;15.65;;;7.80;;
6527;SDS011;64597;42.664;23.256;2024-01-07T02:54:03;11.45;;;6.68;;
6527;SDS011;64597;42.664;23.256;2024-01-07T02:56:29;18.15;;;6.93;;
6527;SDS011;64597;42.664;23.256;2024-01-07T02:58:54;14.88;;;7.03;;
6527;SDS011;64597;42.664;23.256;2024-01-07T03:01:21;13.57;;;6.80;;
6527;SDS011;64597;42.664;23.256;2024-01-07T03:03:47;11.02;;;6.20;;
6527;SDS011;64597;42.664;23.256;2024-01-07T03:06:13;14.15;;;6.35;;
6527;SDS011;64597;42.664;23.256;2024-01-07T03:08:38;11.27;;;6.35;;
6527;SDS011;64597;42.664;23.256;2024-01-07T03:11:04;12.48;;;6.40;;
6527;SDS011;64597;42.664;23.256;2024-01-07T03:13:32;9.50;;;5.38;;
6527;SDS011;64597;42.664;23.256;2024-01-07T03:15:58;10.73;;;4.85;;
6527;SDS011;64597;42.664;23.256;2024-01-07T03:18:24;8.85;;;4.28;;
6527;SDS011;64597;42.664;23.256;2024-01-07T03:20:49;11.75;;;5.63;;
6527;SDS011;64597;42.664;23.256;2024-01-07T03:23:14;6.63;;;4.13;;
6527;SDS011;64597;42.664;23.256;2024-01-07T03:25:40;10.00;;;4.07;;
6527;SDS011;64597;42.664;23.256;2024-01-07T03:28:05;8.63;;;3.53;;
6527;SDS011;64597;42.664;23.256;2024-01-07T03:30:31;5.47;;;3.20;;
6527;SDS011;64597;42.664;23.256;2024-01-07T03:32:56;6.88;;;3.30;;
6527;SDS011;64597;42.664;23.256;2024-01-07T03:35:22;4.88;;;2.85;;
6527;SDS011;64597;42.664;23.256;2024-01-07T03:37:49;6.35;;;3.03;;
6527;SDS011;64597;42.664;23.256;2024-01-07T03:40:14;6.50;;;2.95;;
6527;SDS011;64597;42.664;23.256;2024-01-07T03:42:40;3.70;;;2.00;;
6527;SDS011;64597;42.664;23.256;2024-01-07T03:45:06;6.70;;;3.05;;
6527;SDS011;64597;42.664;23.256;2024-01-07T03:47:31;5.90;;;3.13;;
6527;SDS011;64597;42.664;23.256;2024-01-07T03:49:57;6.35;;;3.45;;
6527;SDS011;64597;42.664;23.256;2024-01-07T03:52:22;6.57;;;2.92;;
6527;SDS011;64597;42.664;23.256;2024-01-07T03:54:48;2.85;;;1.95;;
6527;SDS011;64597;42.664;23.256;2024-01-07T03:57:13;2.63;;;1.27;;
6527;SDS011;64597;42.664;23.256;2024-01-07T03:59:39;3.92;;;1.60;;
6527;SDS011;64597;42.664;23.256;2024-01-07T04:02:04;4.75;;;1.92;;
6527;SDS011;64597;42.664;23.256;2024-01-07T04:04:29;3.17;;;1.27;;
6527;SDS011;64597;42.664;23.256;2024-01-07T04:06:56;5.22;;;2.35;;
6527;SDS011;64597;42.664;23.256;2024-01-07T04:09:21;3.65;;;1.55;;
6527;SDS011;64597;42.664;23.256;2024-01-07T04:11:47;2.03;;;1.50;;
6527;SDS011;64597;42.664;23.256;2024-01-07T04:14:14;2.92;;;1.98;;
6527;SDS011;64597;42.664;23.256;2024-01-07T04:16:40;4.38;;;1.60;;
6527;SDS011;64597;42.664;23.256;2024-01-07T04:19:05;2.58;;;1.63;;
6527;SDS011;64597;42.664;23.256;2024-01-07T04:21:31;2.40;;;1.60;;
6527;SDS011;64597;42.664;23.256;2024-01-07T04:23:56;3.17;;;1.83;;
6527;SDS011;64597;42.664;23.256;2024-01-07T04:26:22;2.70;;;1.52;;
6527;SDS011;64597;42.664;23.256;2024-01-07T04:28:47;2.50;;;1.60;;
6527;SDS011;64597;42.664;23.256;2024-01-07T04:31:13;2.03;;;1.45;;
6527;SDS011;64597;42.664;23.256;2024-01-07T04:33:38;4.55;;;2.50;;
6527;SDS011;64597;42.664;23.256;2024-01-07T04:36:04;3.88;;;2.65;;
6527;SDS011;64597;42.664;23.256;2024-01-07T04:38:30;4.22;;;2.33;;
6527;SDS011;64597;42.664;23.256;2024-01-07T04:40:55;4.95;;;2.38;;
6527;SDS011;64597;42.664;23.256;2024-01-07T04:43:21;5.07;;;2.42;;
6527;SDS011;64597;42.664;23.256;2024-01-07T04:45:46;6.15;;;2.20;;
6527;SDS011;64597;42.664;23.256;2024-01-07T04:48:12;4.22;;;2.17;;
6527;SDS011;64597;42.664;23.256;2024-01-07T04:50:39;2.95;;;1.80;;
6527;SDS011;64597;42.664;23.256;2024-01-07T04:53:06;7.15;;;2.72;;
6527;SDS011;64597;42.664;23.256;2024-01-07T04:55:32;3.47;;;1.85;;
6527;SDS011;64597;42.664;23.256;2024-01-07T04:57:57;3.20;;;1.85;;
6527;SDS011;64597;42.664;23.256;2024-01-07T05:00:23;3.83;;;2.20;;
6527;SDS011;64597;42.664;23.256;2024-01-07T05:02:48;3.97;;;2.58;;
6527;SDS011;64597;42.664;23.256;2024-01-07T05:05:14;6.70;;;2.85;;
6527;SDS011;64597;42.664;23.256;2024-01-07T05:07:39;3.33;;;2.20;;
6527;SDS011;64597;42.664;23.256;2024-01-07T05:10:05;4.03;;;2.33;;
6527;SDS011;64597;42.664;23.256;2024-01-07T05:12:31;3.97;;;2.25;;
6527;SDS011;64597;42.664;23.256;2024-01-07T05:14:56;2.88;;;2.22;;
6527;SDS011;64597;42.664;23.256;2024-01-07T05:17:21;3.35;;;2.05;;
6527;SDS011;64597;42.664;23.256;2024-01-07T05:19:47;3.92;;;3.05;;
6527;SDS011;64597;42.664;23.256;2024-01-07T05:22:12;2.63;;;1.85;;
6527;SDS011;64597;42.664;23.256;2024-01-07T05:24:38;2.95;;;1.70;;
6527;SDS011;64597;42.664;23.256;2024-01-07T05:27:03;3.60;;;1.65;;
6527;SDS011;64597;42.664;23.256;2024-01-07T05:29:29;3.47;;;1.67;;
6527;SDS011;64597;42.664;23.256;2024-01-07T05:31:55;3.30;;;1.60;;
6527;SDS011;64597;42.664;23.256;2024-01-07T05:34:20;4.53;;;2.15;;
6527;SDS011;64597;42.664;23.256;2024-01-07T05:36:45;3.15;;;2.20;;
6527;SDS011;64597;42.664;23.256;2024-01-07T05:39:11;5.35;;;2.90;;
6527;SDS011;64597;42.664;23.256;2024-01-07T05:41:37;5.55;;;2.88;;
6527;SDS011;64597;42.664;23.256;2024-01-07T05:44:06;6.60;;;3.50;;
6527;SDS011;64597;42.664;23.256;2024-01-07T05:46:33;5.68;;;3.15;;
6527;SDS011;64597;42.664;23.256;2024-01-07T05:48:58;4.78;;;3.00;;
6527;SDS011;64597;42.664;23.256;2024-01-07T05:51:24;9.35;;;3.67;;
6527;SDS011;64597;42.664;23.256;2024-01-07T05:53:49;8.07;;;3.53;;
6527;SDS011;64597;42.664;23.256;2024-01-07T05:56:15;7.38;;;3.53;;
6527;SDS011;64597;42.664;23.256;2024-01-07T05:58:40;4.65;;;3.50;;
6527;SDS011;64597;42.664;23.256;2024-01-07T06:01:07;6.68;;;4.30;;
6527;SDS011;64597;42.664;23.256;2024-01-07T06:03:33;7.38;;;3.85;;
6527;SDS011;64597;42.664;23.256;2024-01-07T06:05:59;5.53;;;3.63;;
6527;SDS011;64597;42.664;23.256;2024-01-07T06:08:24;7.38;;;4.15;;
6527;SDS011;64597;42.664;23.256;2024-01-07T06:10:51;5.40;;;3.70;;
6527;SDS011;64597;42.664;23.256;2024-01-07T06:13:16;8.32;;;4.00;;
6527;SDS011;64597;42.664;23.256;2024-01-07T06:15:41;6.68;;;3.47;;
6527;SDS011;64597;42.664;23.256;2024-01-07T06:18:07;6.40;;;3.90;;
6527;SDS011;64597;42.664;23.256;2024-01-07T06:20:32;7.22;;;4.05;;
6527;SDS011;64597;42.664;23.256;2024-01-07T06:22:58;5.20;;;3.65;;
6527;SDS011;64597;42.664;23.256;2024-01-07T06:25:24;7.82;;;4.60;;
6527;SDS011;64597;42.664;23.256;2024-01-07T06:27:51;7.15;;;4.10;;
6527;SDS011;64597;42.664;23.256;2024-01-07T06:30:16;7.43;;;4.30;;
6527;SDS011;64597;42.664;23.256;2024-01-07T06:32:44;6.75;;;4.55;;
6527;SDS011;64597;42.664;23.256;2024-01-07T06:35:10;7.47;;;4.30;;
6527;SDS011;64597;42.664;23.256;2024-01-07T06:37:36;6.20;;;3.95;;
6527;SDS011;64597;42.664;23.256;2024-01-07T06:40:02;9.20;;;4.22;;
6527;SDS011;64597;42.664;23.256;2024-01-07T06:42:28;8.13;;;4.50;;
6527;SDS011;64597;42.664;23.256;2024-01-07T06:44:54;5.50;;;3.80;;
6527;SDS011;64597;42.664;23.256;2024-01-07T06:47:19;4.45;;;3.03;;
6527;SDS011;64597;42.664;23.256;2024-01-07T06:49:44;6.82;;;4.38;;
6527;SDS011;64597;42.664;23.256;2024-01-07T06:52:10;7.90;;;3.58;;
6527;SDS011;64597;42.664;23.256;2024-01-07T06:54:35;7.07;;;4.30;;
6527;SDS011;64597;42.664;23.256;2024-01-07T06:57:01;10.95;;;5.47;;
6527;SDS011;64597;42.664;23.256;2024-01-07T06:59:27;7.50;;;4.97;;
6527;SDS011;64597;42.664;23.256;2024-01-07T07:01:53;9.27;;;4.70;;
6527;SDS011;64597;42.664;23.256;2024-01-07T07:04:20;10.93;;;5.90;;
6527;SDS011;64597;42.664;23.256;2024-01-07T07:06:47;10.27;;;4.93;;
6527;SDS011;64597;42.664;23.256;2024-01-07T07:09:12;7.75;;;4.68;;
6527;SDS011;64597;42.664;23.256;2024-01-07T07:11:38;9.68;;;5.50;;
6527;SDS011;64597;42.664;23.256;2024-01-07T07:14:04;9.30;;;5.30;;
6527;SDS011;64597;42.664;23.256;2024-01-07T07:16:29;8.15;;;5.00;;
6527;SDS011;64597;42.664;23.256;2024-01-07T07:18:55;10.23;;;4.90;;
6527;SDS011;64597;42.664;23.256;2024-01-07T07:21:20;11.55;;;5.63;;
6527;SDS011;64597;42.664;23.256;2024-01-07T07:23:46;8.88;;;5.22;;
6527;SDS011;64597;42.664;23.256;2024-01-07T07:26:11;9.77;;;5.75;;
6527;SDS011;64597;42.664;23.256;2024-01-07T07:28:37;9.15;;;5.55;;
6527;SDS011;64597;42.664;23.256;2024-01-07T07:31:02;8.55;;;6.10;;
6527;SDS011;64597;42.664;23.256;2024-01-07T07:33:28;3.25;;;2.20;;
6527;SDS011;64597;42.664;23.256;2024-01-07T07:35:53;12.95;;;7.07;;
6527;SDS011;64597;42.664;23.256;2024-01-07T07:38:18;18.60;;;9.93;;
6527;SDS011;64597;42.664;23.256;2024-01-07T07:40:44;11.27;;;6.18;;
6527;SDS011;64597;42.664;23.256;2024-01-07T07:43:15;8.32;;;5.22;;
6527;SDS011;64597;42.664;23.256;2024-01-07T07:45:40;7.85;;;4.65;;
6527;SDS011;64597;42.664;23.256;2024-01-07T07:48:06;6.63;;;4.85;;
6527;SDS011;64597;42.664;23.256;2024-01-07T07:50:31;11.48;;;6.72;;
6527;SDS011;64597;42.664;23.256;2024-01-07T07:53:07;12.65;;;6.90;;
6527;SDS011;64597;42.664;23.256;2024-01-07T07:55:37;15.20;;;6.43;;
6527;SDS011;64597;42.664;23.256;2024-01-07T07:58:04;11.70;;;7.00;;
6527;SDS011;64597;42.664;23.256;2024-01-07T08:00:29;14.43;;;7.60;;
6527;SDS011;64597;42.664;23.256;2024-01-07T08:02:55;14.40;;;7.95;;
6527;SDS011;64597;42.664;23.256;2024-01-07T08:05:20;10.82;;;6.70;;
6527;SDS011;64597;42.664;23.256;2024-01-07T08:07:46;11.05;;;5.95;;
6527;SDS011;64597;42.664;23.256;2024-01-07T08:10:11;16.52;;;7.55;;
6527;SDS011;64597;42.664;23.256;2024-01-07T08:12:37;12.93;;;6.28;;
6527;SDS011;64597;42.664;23.256;2024-01-07T08:15:02;10.45;;;6.57;;
6527;SDS011;64597;42.664;23.256;2024-01-07T08:17:30;12.15;;;7.22;;
6527;SDS011;64597;42.664;23.256;2024-01-07T08:19:55;8.98;;;5.35;;
6527;SDS011;64597;42.664;23.256;2024-01-07T08:22:21;8.95;;;4.97;;
6527;SDS011;64597;42.664;23.256;2024-01-07T08:24:46;11.45;;;5.53;;
6527;SDS011;64597;42.664;23.256;2024-01-07T08:27:12;5.80;;;4.05;;
6527;SDS011;64597;42.664;23.256;2024-01-07T08:32:07;8.65;;;4.57;;
6527;SDS011;64597;42.664;23.256;2024-01-07T08:34:33;9.88;;;5.00;;
6527;SDS011;64597;42.664;23.256;2024-01-07T08:37:00;7.93;;;4.82;;
6527;SDS011;64597;42.664;23.256;2024-01-07T08:39:25;5.57;;;3.35;;
6527;SDS011;64597;42.664;23.256;2024-01-07T08:41:53;8.00;;;4.25;;
6527;SDS011;64597;42.664;23.256;2024-01-07T08:44:19;9.00;;;4.85;;
6527;SDS011;64597;42.664;23.256;2024-01-07T08:46:44;9.00;;;5.15;;
6527;SDS011;64597;42.664;23.256;2024-01-07T08:49:10;9.05;;;5.22;;
6527;SDS011;64597;42.664;23.256;2024-01-07T08:51:36;8.88;;;5.15;;
6527;SDS011;64597;42.664;23.256;2024-01-07T08:54:02;7.70;;;5.32;;
6527;SDS011;64597;42.664;23.256;2024-01-07T08:56:28;9.52;;;6.15;;
6527;SDS011;64597;42.664;23.256;2024-01-07T08:58:53;8.52;;;5.68;;
6527;SDS011;64597;42.664;23.256;2024-01-07T09:01:19;10.30;;;7.50;;
6527;SDS011;64597;42.664;23.256;2024-01-07T09:03:44;8.95;;;6.13;;
6527;SDS011;64597;42.664;23.256;2024-01-07T09:06:10;7.68;;;4.95;;
6527;SDS011;64597;42.664;23.256;2024-01-07T09:08:35;6.28;;;4.65;;
6527;SDS011;64597;42.664;23.256;2024-01-07T09:11:03;6.72;;;4.53;;
6527;SDS011;64597;42.664;23.256;2024-01-07T09:15:57;5.65;;;4.60;;
6527;SDS011;64597;42.664;23.256;2024-01-07T09:18:23;9.68;;;4.78;;
6527;SDS011;64597;42.664;23.256;2024-01-07T09:20:48;5.10;;;4.13;;
6527;SDS011;64597;42.664;23.256;2024-01-07T09:23:14;6.75;;;4.28;;
6527;SDS011;64597;42.664;23.256;2024-01-07T09:25:42;6.30;;;4.93;;
6527;SDS011;64597;42.664;23.256;2024-01-07T09:28:08;6.70;;;4.72;;
6527;SDS011;64597;42.664;23.256;2024-01-07T09:30:33;7.15;;;4.97;;
6527;SDS011;64597;42.664;23.256;2024-01-07T09:32:59;8.65;;;5.28;;
6527;SDS011;64597;42.664;23.256;2024-01-07T09:35:25;7.95;;;5.32;;
6527;SDS011;64597;42.664;23.256;2024-01-07T09:37:50;8.23;;;5.65;;
6527;SDS011;64597;42.664;23.256;2024-01-07T09:40:17;8.88;;;5.45;;
6527;SDS011;64597;42.664;23.256;2024-01-07T09:42:46;6.72;;;5.30;;
6527;SDS011;64597;42.664;23.256;2024-01-07T09:45:13;7.20;;;5.45;;
6527;SDS011;64597;42.664;23.256;2024-01-07T09:47:39;5.90;;;4.95;;
6527;SDS011;64597;42.664;23.256;2024-01-07T09:50:06;7.13;;;5.47;;
6527;SDS011;64597;42.664;23.256;2024-01-07T09:52:34;7.20;;;4.55;;
6527;SDS011;64597;42.664;23.256;2024-01-07T09:55:02;10.98;;;7.47;;
6527;SDS011;64597;42.664;23.256;2024-01-07T09:57:28;7.93;;;5.30;;
6527;SDS011;64597;42.664;23.256;2024-01-07T09:59:55;8.63;;;4.75;;
6527;SDS011;64597;42.664;23.256;2024-01-07T10:02:20;3.88;;;2.30;;
6527;SDS011;64597;42.664;23.256;2024-01-07T10:04:49;6.72;;;4.45;;
6527;SDS011;64597;42.664;23.256;2024-01-07T10:07:15;5.45;;;3.50;;
6527;SDS011;64597;42.664;23.256;2024-01-07T10:09:41;5.50;;;3.83;;
6527;SDS011;64597;42.664;23.256;2024-01-07T10:12:09;6.88;;;4.97;;
6527;SDS011;64597;42.664;23.256;2024-01-07T10:14:35;7.65;;;4.78;;
6527;SDS011;64597;42.664;23.256;2024-01-07T10:17:01;8.75;;;5.72;;
6527;SDS011;64597;42.664;23.256;2024-01-07T10:19:26;5.85;;;4.38;;
6527;SDS011;64597;42.664;23.256;2024-01-07T10:22:02;4.80;;;2.38;;
6527;SDS011;64597;42.664;23.256;2024-01-07T10:24:39;4.22;;;1.73;;
6527;SDS011;64597;42.664;23.256;2024-01-07T10:27:05;4.70;;;2.00;;
6527;SDS011;64597;42.664;23.256;2024-01-07T10:29:32;2.45;;;1.70;;
6527;SDS011;64597;42.664;23.256;2024-01-07T10:31:58;1.70;;;1.00;;
6527;SDS011;64597;42.664;23.256;2024-01-07T10:34:24;2.80;;;0.88;;
6527;SDS011;64597;42.664;23.256;2024-01-07T10:36:52;3.15;;;0.70;;
6527;SDS011;64597;42.664;23.256;2024-01-07T10:39:21;1.33;;;0.70;;
6527;SDS011;64597;42.664;23.256;2024-01-07T10:41:47;1.55;;;0.98;;
6527;SDS011;64597;42.664;23.256;2024-01-07T10:44:15;1.17;;;0.40;;
6527;SDS011;64597;42.664;23.256;2024-01-07T10:46:40;3.03;;;0.80;;
6527;SDS011;64597;42.664;23.256;2024-01-07T10:49:30;5.88;;;3.55;;
6527;SDS011;64597;42.664;23.256;2024-01-07T10:52:06;8.75;;;4.00;;
6527;SDS011;64597;42.664;23.256;2024-01-07T10:54:33;6.53;;;4.20;;
6527;SDS011;64597;42.664;23.256;2024-01-07T10:57:12;4.22;;;2.83;;
6527;SDS011;64597;42.664;23.256;2024-01-07T10:59:46;7.22;;;5.10;;
6527;SDS011;64597;42.664;23.256;2024-01-07T11:02:12;11.55;;;6.20;;
6527;SDS011;64597;42.664;23.256;2024-01-07T11:04:42;7.32;;;3.63;;
6527;SDS011;64597;42.664;23.256;2024-01-07T11:07:27;6.78;;;4.53;;
6527;SDS011;64597;42.664;23.256;2024-01-07T11:12:37;8.38;;;5.75;;
6527;SDS011;64597;42.664;23.256;2024-01-07T11:15:03;8.18;;;6.25;;
6527;SDS011;64597;42.664;23.256;2024-01-07T11:19:59;9.68;;;6.85;;
6527;SDS011;64597;42.664;23.256;2024-01-07T11:22:27;10.50;;;5.60;;
6527;SDS011;64597;42.664;23.256;2024-01-07T11:24:54;8.75;;;4.45;;
6527;SDS011;64597;42.664;23.256;2024-01-07T11:27:23;3.97;;;2.10;;
6527;SDS011;64597;42.664;23.256;2024-01-07T11:29:53;9.70;;;4.78;;
6527;SDS011;64597;42.664;23.256;2024-01-07T11:32:24;9.13;;;4.45;;
6527;SDS011;64597;42.664;23.256;2024-01-07T11:34:54;24.13;;;11.45;;
6527;SDS011;64597;42.664;23.256;2024-01-07T11:37:22;4.78;;;3.25;;
6527;SDS011;64597;42.664;23.256;2024-01-07T11:39:50;7.47;;;4.07;;
6527;SDS011;64597;42.664;23.256;2024-01-07T11:42:17;6.35;;;4.53;;
6527;SDS011;64597;42.664;23.256;2024-01-07T11:44:50;9.40;;;5.82;;
6527;SDS011;64597;42.664;23.256;2024-01-07T11:47:17;10.52;;;4.95;;
6527;SDS011;64597;42.664;23.256;2024-01-07T11:49:44;10.52;;;5.88;;
6527;SDS011;64597;42.664;23.256;2024-01-07T11:52:10;10.75;;;5.43;;
6527;SDS011;64597;42.664;23.256;2024-01-07T11:54:37;8.95;;;5.30;;
6527;SDS011;64597;42.664;23.256;2024-01-07T11:57:03;8.25;;;4.80;;
6527;SDS011;64597;42.664;23.256;2024-01-07T11:59:30;9.98;;;4.72;;
6527;SDS011;64597;42.664;23.256;2024-01-07T12:01:55;7.47;;;4.07;;
6527;SDS011;64597;42.664;23.256;2024-01-07T12:04:21;3.15;;;2.72;;
6527;SDS011;64597;42.664;23.256;2024-01-07T12:06:47;11.48;;;5.88;;
6527;SDS011;64597;42.664;23.256;2024-01-07T12:09:13;9.50;;;4.88;;
6527;SDS011;64597;42.664;23.256;2024-01-07T12:11:39;8.85;;;4.22;;
6527;SDS011;64597;42.664;23.256;2024-01-07T12:14:06;6.45;;;4.80;;
6527;SDS011;64597;42.664;23.256;2024-01-07T12:16:33;5.88;;;4.20;;
6527;SDS011;64597;42.664;23.256;2024-01-07T12:18:59;4.70;;;3.38;;
6527;SDS011;64597;42.664;23.256;2024-01-07T12:21:24;7.25;;;4.13;;
6527;SDS011;64597;42.664;23.256;2024-01-07T12:23:52;7.93;;;4.20;;
6527;SDS011;64597;42.664;23.256;2024-01-07T12:26:17;6.75;;;4.72;;
6527;SDS011;64597;42.664;23.256;2024-01-07T12:28:52;6.60;;;4.30;;
6527;SDS011;64597;42.664;23.256;2024-01-07T12:31:24;6.13;;;3.92;;
6527;SDS011;64597;42.664;23.256;2024-01-07T12:33:51;6.95;;;4.40;;
6527;SDS011;64597;42.664;23.256;2024-01-07T12:36:21;7.53;;;4.40;;
6527;SDS011;64597;42.664;23.256;2024-01-07T12:38:47;9.00;;;3.78;;
6527;SDS011;64597;42.664;23.256;2024-01-07T12:41:13;9.18;;;4.05;;
6527;SDS011;64597;42.664;23.256;2024-01-07T12:43:39;8.23;;;3.67;;
6527;SDS011;64597;42.664;23.256;2024-01-07T12:46:04;6.18;;;4.55;;
6527;SDS011;64597;42.664;23.256;2024-01-07T12:48:30;7.90;;;5.18;;
6527;SDS011;64597;42.664;23.256;2024-01-07T12:50:56;10.52;;;4.72;;
6527;SDS011;64597;42.664;23.256;2024-01-07T12:53:22;11.50;;;4.82;;
6527;SDS011;64597;42.664;23.256;2024-01-07T12:55:48;7.60;;;4.75;;
6527;SDS011;64597;42.664;23.256;2024-01-07T12:58:14;8.40;;;5.18;;
6527;SDS011;64597;42.664;23.256;2024-01-07T13:00:39;8.35;;;5.35;;
6527;SDS011;64597;42.664;23.256;2024-01-07T13:03:06;9.60;;;5.55;;
6527;SDS011;64597;42.664;23.256;2024-01-07T13:05:33;8.70;;;5.38;;
6527;SDS011;64597;42.664;23.256;2024-01-07T13:07:59;11.40;;;6.30;;
6527;SDS011;64597;42.664;23.256;2024-01-07T13:10:27;10.35;;;4.85;;
6527;SDS011;64597;42.664;23.256;2024-01-07T13:12:53;7.15;;;4.75;;
6527;SDS011;64597;42.664;23.256;2024-01-07T13:15:19;8.30;;;5.35;;
6527;SDS011;64597;42.664;23.256;2024-01-07T13:17:44;7.60;;;5.30;;
6527;SDS011;64597;42.664;23.256;2024-01-07T13:20:10;8.70;;;5.38;;
6527;SDS011;64597;42.664;23.256;2024-01-07T13:22:39;6.97;;;5.18;;
6527;SDS011;64597;42.664;23.256;2024-01-07T13:25:05;11.90;;;5.15;;
6527;SDS011;64597;42.664;23.256;2024-01-07T13:27:31;9.10;;;5.60;;
6527;SDS011;64597;42.664;23.256;2024-01-07T13:29:57;8.32;;;5.75;;
6527;SDS011;64597;42.664;23.256;2024-01-07T13:32:23;7.22;;;4.28;;
6527;SDS011;64597;42.664;23.256;2024-01-07T13:34:49;7.80;;;4.93;;
6527;SDS011;64597;42.664;23.256;2024-01-07T13:37:15;7.70;;;4.50;;
6527;SDS011;64597;42.664;23.256;2024-01-07T13:39:40;7.57;;;4.40;;
6527;SDS011;64597;42.664;23.256;2024-01-07T13:42:06;6.93;;;3.95;;
6527;SDS011;64597;42.664;23.256;2024-01-07T13:44:32;5.13;;;3.38;;
6527;SDS011;64597;42.664;23.256;2024-01-07T13:46:59;6.47;;;4.38;;
6527;SDS011;64597;42.664;23.256;2024-01-07T13:49:26;6.57;;;4.40;;
6527;SDS011;64597;42.664;23.256;2024-01-07T13:51:53;7.97;;;4.65;;
6527;SDS011;64597;42.664;23.256;2024-01-07T13:54:18;6.25;;;4.30;;
6527;SDS011;64597;42.664;23.256;2024-01-07T13:56:44;7.63;;;4.05;;
6527;SDS011;64597;42.664;23.256;2024-01-07T13:59:11;7.18;;;3.78;;
6527;SDS011;64597;42.664;23.256;2024-01-07T14:01:36;7.22;;;5.32;;
6527;SDS011;64597;42.664;23.256;2024-01-07T14:04:02;9.32;;;5.50;;
6527;SDS011;64597;42.664;23.256;2024-01-07T14:06:28;9.15;;;4.78;;
6527;SDS011;64597;42.664;23.256;2024-01-07T14:08:54;9.68;;;5.28;;
6527;SDS011;64597;42.664;23.256;2024-01-07T14:11:19;7.78;;;5.05;;
6527;SDS011;64597;42.664;23.256;2024-01-07T14:13:52;9.38;;;5.97;;
6527;SDS011;64597;42.664;23.256;2024-01-07T14:17:13;9.38;;;6.07;;
6527;SDS011;64597;42.664;23.256;2024-01-07T14:19:39;10.82;;;5.75;;
6527;SDS011;64597;42.664;23.256;2024-01-07T14:22:04;9.65;;;5.68;;
6527;SDS011;64597;42.664;23.256;2024-01-07T14:24:30;10.00;;;5.65;;
6527;SDS011;64597;42.664;23.256;2024-01-07T14:26:55;11.98;;;5.50;;
6527;SDS011;64597;42.664;23.256;2024-01-07T14:29:21;10.55;;;5.53;;
6527;SDS011;64597;42.664;23.256;2024-01-07T14:31:46;9.05;;;6.00;;
6527;SDS011;64597;42.664;23.256;2024-01-07T14:34:13;14.10;;;8.07;;
6527;SDS011;64597;42.664;23.256;2024-01-07T14:36:39;14.95;;;8.45;;
6527;SDS011;64597;42.664;23.256;2024-01-07T14:39:06;14.27;;;8.18;;
6527;SDS011;64597;42.664;23.256;2024-01-07T14:41:33;13.05;;;8.93;;
6527;SDS011;64597;42.664;23.256;2024-01-07T14:43:59;13.55;;;8.52;;
6527;SDS011;64597;42.664;23.256;2024-01-07T14:46:25;12.88;;;8.43;;
6527;SDS011;64597;42.664;23.256;2024-01-07T14:48:50;12.98;;;7.60;;